Time;durP1;ratioP1;P1;durP2;ratioP2;P2;SDS_P1;SDS_P2;PMS_P1;PMS_P2;Temp;Humidity;BMP_temperature;BMP_pressure;BME280_temperature;BME280_humidity;BME280_pressure;Samples;Min_cycle;Max_cycle;Signal;HPM_P1;HPM_P2
2022/07/13 00:00:55;;;;;;;3.13;1.58;;;;;;;13.71;73.17;96887.94;2024402;29;20048;-89
2022/07/13 00:01:56;;;;;;;3.45;1.77;;;;;;;13.51;72.62;96860.16;2032667;29;20044;-88
2022/07/13 00:02:58;;;;;;;2.00;1.60;;;;;;;13.63;73.35;96886.56;2033740;29;20054;-89
2022/07/13 00:03:59;;;;;;;4.03;1.55;;;;;;;13.61;73.48;96884.94;2025664;29;20044;-89
2022/07/13 00:05:01;;;;;;;3.45;1.40;;;;;;;13.55;73.45;96875.63;2024649;29;20040;-89
2022/07/13 00:06:02;;;;;;;2.10;1.52;;;;;;;13.58;74.02;96887.66;2032776;29;20039;-88
2022/07/13 00:07:03;;;;;;;4.47;2.10;;;;;;;13.59;73.61;96878.91;2031649;29;20051;-88
2022/07/13 00:08:05;;;;;;;3.72;1.80;;;;;;;13.59;73.90;96877.16;2024586;29;20044;-88
2022/07/13 00:09:06;;;;;;;3.67;1.70;;;;;;;13.67;73.61;96889.84;2039703;29;20046;-89
2022/07/13 00:10:08;;;;;;;2.75;1.67;;;;;;;13.58;73.54;96867.63;2024845;29;20048;-89
2022/07/13 00:11:09;;;;;;;3.15;1.60;;;;;;;13.70;73.51;96881.03;2024378;29;20045;-88
2022/07/13 00:12:10;;;;;;;2.42;1.42;;;;;;;13.44;73.22;96846.53;2031932;29;20067;-88
2022/07/13 00:13:11;;;;;;;2.45;1.90;;;;;;;13.66;73.28;96877.75;2024978;29;20052;-88
2022/07/13 00:14:13;;;;;;;3.28;1.75;;;;;;;13.73;73.38;96883.50;2031900;29;20052;-88
2022/07/13 00:15:14;;;;;;;3.33;1.67;;;;;;;13.67;72.98;96869.81;2025126;29;20044;-88
2022/07/13 00:16:15;;;;;;;4.13;1.60;;;;;;;13.71;73.02;96880.94;2024643;29;20056;-88
2022/07/13 00:17:17;;;;;;;3.50;1.83;;;;;;;13.61;72.91;96866.66;2024768;29;20413;-89
2022/07/13 00:18:18;;;;;;;2.85;1.50;;;;;;;13.66;73.10;96875.13;2039579;29;20056;-89
2022/07/13 00:19:20;;;;;;;4.43;1.63;;;;;;;13.62;72.93;96876.16;2024451;29;20049;-88
2022/07/13 00:20:21;;;;;;;4.32;1.48;;;;;;;13.50;73.42;96858.44;2017033;29;20053;-88
2022/07/13 00:21:22;;;;;;;4.20;1.63;;;;;;;13.59;73.60;96879.75;2032736;29;20055;-89
2022/07/13 00:22:25;;;;;;;3.50;1.88;;;;;;;13.37;73.95;96843.34;2039451;29;20047;-89
2022/07/13 00:23:26;;;;;;;6.05;1.90;;;;;;;13.55;73.99;96877.34;2031806;29;20484;-89
2022/07/13 00:24:27;;;;;;;3.67;1.70;;;;;;;13.46;74.26;96879.47;2025067;29;20048;-88
2022/07/13 00:25:29;;;;;;;2.83;1.80;;;;;;;13.32;74.29;96857.53;2024872;29;20052;-88
2022/07/13 00:26:30;;;;;;;2.72;1.50;;;;;;;13.47;74.72;96880.28;2024585;29;20057;-88
2022/07/13 00:27:31;;;;;;;3.70;1.77;;;;;;;13.41;74.37;96875.38;2032768;29;20051;-89
2022/07/13 00:28:33;;;;;;;5.72;1.65;;;;;;;13.30;74.83;96867.16;2017090;29;20044;-88
2022/07/13 00:29:34;;;;;;;3.05;1.67;;;;;;;13.35;75.17;96878.25;2024364;29;20055;-88
2022/07/13 00:30:36;;;;;;;3.38;1.60;;;;;;;13.37;75.12;96877.28;2039508;29;20047;-89
2022/07/13 00:31:37;;;;;;;6.43;2.00;;;;;;;13.38;74.67;96873.72;2018396;29;20049;-89
2022/07/13 00:32:38;;;;;;;3.10;1.95;;;;;;;13.40;74.76;96879.75;2025419;29;20057;-88
2022/07/13 00:33:39;;;;;;;2.58;1.70;;;;;;;13.36;74.87;96870.34;2025771;29;20059;-88
2022/07/13 00:34:41;;;;;;;3.03;1.73;;;;;;;13.33;75.21;96864.41;2026325;29;20528;-89
2022/07/13 00:35:42;;;;;;;5.90;1.83;;;;;;;13.33;75.48;96870.47;2033886;29;20056;-88
2022/07/13 00:36:43;;;;;;;6.00;2.00;;;;;;;13.33;75.67;96872.25;2026117;29;20045;-89
2022/07/13 00:37:45;;;;;;;2.63;1.67;;;;;;;13.32;75.16;96881.00;2026151;29;20071;-88
2022/07/13 00:38:46;;;;;;;5.28;2.03;;;;;;;13.30;75.43;96878.44;2025817;29;20049;-89
2022/07/13 00:39:47;;;;;;;3.20;1.67;;;;;;;12.96;75.67;96835.56;2019241;29;20049;-89
2022/07/13 00:40:49;;;;;;;5.05;1.73;;;;;;;13.17;75.53;96877.25;2026493;29;20049;-89
2022/07/13 00:41:50;;;;;;;4.32;1.92;;;;;;;13.15;75.34;96876.47;2033505;29;20052;-89
2022/07/13 00:42:52;;;;;;;3.28;1.85;;;;;;;13.05;75.53;96856.94;2017993;29;20053;-88
2022/07/13 00:43:53;;;;;;;3.55;2.10;;;;;;;13.17;75.14;96875.50;2018402;29;20044;-89
2022/07/13 00:44:55;;;;;;;3.45;1.95;;;;;;;13.19;75.66;96878.03;2034687;29;20055;-88
2022/07/13 00:45:56;;;;;;;3.88;2.08;;;;;;;13.18;75.58;96873.75;2034728;29;20039;-89
2022/07/13 00:46:57;;;;;;;4.22;2.38;;;;;;;13.18;75.51;96876.38;2034211;29;20048;-89
2022/07/13 00:47:58;;;;;;;5.10;2.10;;;;;;;13.24;75.15;96876.09;2026370;29;20432;-89
2022/07/13 00:49:00;;;;;;;5.97;2.20;;;;;;;13.20;75.16;96870.16;2033739;29;20039;-89
2022/07/13 00:50:06;;;;;;;3.70;1.90;;;;;;;13.20;75.21;96864.06;2033983;29;20059;-88
2022/07/13 00:51:07;;;;;;;4.38;2.00;;;;;;;13.26;75.22;96874.28;2025972;29;20417;-89
2022/07/13 00:52:09;;;;;;;4.72;2.00;;;;;;;13.25;74.74;96877.75;2010089;29;20045;-90
2022/07/13 00:53:10;;;;;;;3.13;2.00;;;;;;;13.06;74.79;96850.81;2026111;29;20052;-89
2022/07/13 00:54:12;;;;;;;4.57;2.40;;;;;;;13.22;75.18;96878.75;2034146;29;20050;-89
2022/07/13 00:55:13;;;;;;;4.10;2.13;;;;;;;13.11;74.86;96861.88;2018419;29;20052;-89
2022/07/13 00:56:15;;;;;;;4.32;2.10;;;;;;;13.17;75.24;96877.25;2026006;29;20057;-89
2022/07/13 00:57:16;;;;;;;2.90;1.85;;;;;;;13.11;75.33;96867.09;2033343;29;20071;-89
2022/07/13 00:58:17;;;;;;;5.22;2.17;;;;;;;13.07;75.24;96870.75;2025932;29;20055;-88
2022/07/13 00:59:19;;;;;;;7.55;2.38;;;;;;;13.05;75.32;96868.22;2018616;29;20055;-89
2022/07/13 01:00:20;;;;;;;6.38;1.90;;;;;;;13.07;75.90;96876.81;2025803;29;20401;-89
2022/07/13 01:01:21;;;;;;;5.05;1.95;;;;;;;13.03;75.86;96878.69;2033230;29;20051;-89
2022/07/13 01:02:23;;;;;;;3.53;2.10;;;;;;;13.04;75.85;96874.31;2026123;29;20507;-89
2022/07/13 01:03:28;;;;;;;2.63;1.90;;;;;;;12.88;75.83;96861.09;2051665;23;20050;-81
2022/07/13 01:04:30;;;;;;;4.10;1.92;;;;;;;12.94;75.94;96853.03;2036811;29;20041;-81
2022/07/13 01:05:31;;;;;;;4.55;2.70;;;;;;;13.05;76.20;96876.03;2044535;28;20028;-82
2022/07/13 01:06:33;;;;;;;3.80;2.05;;;;;;;13.03;76.04;96880.47;2044681;28;20044;-82
2022/07/13 01:07:34;;;;;;;3.95;2.03;;;;;;;13.03;76.00;96870.88;2036801;29;20063;-81
2022/07/13 01:08:35;;;;;;;4.80;1.98;;;;;;;13.04;75.89;96869.09;2052355;28;20051;-80
2022/07/13 01:09:37;;;;;;;5.65;2.20;;;;;;;12.77;75.98;96842.47;2051588;28;20054;-80
2022/07/13 01:10:38;;;;;;;4.75;2.22;;;;;;;12.96;75.78;96872.06;2052450;28;20035;-81
2022/07/13 01:11:40;;;;;;;3.50;2.10;;;;;;;12.66;76.29;96840.31;2044098;28;20032;-81
2022/07/13 01:12:41;;;;;;;6.65;2.17;;;;;;;12.68;76.00;96848.06;2044398;28;20071;-81
2022/07/13 01:13:43;;;;;;;4.03;2.35;;;;;;;12.84;76.38;96877.78;2036660;29;20029;-80
2022/07/13 01:14:44;;;;;;;2.63;1.98;;;;;;;12.83;76.10;96876.13;2036388;29;20057;-81
2022/07/13 01:15:46;;;;;;;8.30;2.40;;;;;;;12.57;76.54;96828.53;2036588;29;20040;-81
2022/07/13 01:16:47;;;;;;;3.60;2.28;;;;;;;12.81;76.52;96864.91;2052035;28;20044;-81
2022/07/13 01:17:49;;;;;;;4.15;2.05;;;;;;;12.84;76.67;96869.97;2052162;28;20051;-81
2022/07/13 01:18:50;;;;;;;3.58;2.25;;;;;;;12.56;76.81;96824.25;2044584;28;20032;-80
2022/07/13 01:19:51;;;;;;;3.72;2.03;;;;;;;12.54;77.06;96822.59;2036350;28;20040;-81
2022/07/13 01:20:52;;;;;;;4.28;2.20;;;;;;;12.84;76.90;96869.13;2036815;29;20036;-81
2022/07/13 01:21:58;;;;;;;8.60;2.15;;;;;;;12.84;77.02;96874.34;2043982;28;20036;-81
2022/07/13 01:23:05;;;;;;;4.38;2.30;;;;;;;12.53;76.89;96820.88;2029133;29;20037;-81
2022/07/13 01:24:06;;;;;;;5.93;2.38;;;;;;;12.54;77.07;96828.66;2029286;29;20049;-81
2022/07/13 01:25:08;;;;;;;5.55;2.47;;;;;;;12.79;77.22;96867.56;2044159;28;20043;-80
2022/07/13 01:26:11;;;;;;;4.95;2.50;;;;;;;12.80;76.66;96878.81;2059881;28;20023;-80
2022/07/13 01:27:13;;;;;;;8.18;2.30;;;;;;;12.55;76.82;96827.72;2052520;28;20032;-81
2022/07/13 01:28:14;;;;;;;5.07;2.20;;;;;;;12.79;76.96;96869.31;2044263;28;20036;-81
2022/07/13 01:29:15;;;;;;;3.55;2.20;;;;;;;12.77;77.59;96869.38;2036619;29;20044;-81
2022/07/13 01:30:17;;;;;;;5.88;2.08;;;;;;;12.45;76.93;96818.59;2036441;29;20047;-81
2022/07/13 01:31:38;;;;;;;3.67;2.30;;;;;;;12.77;77.03;96873.75;2029895;28;20033;-81
2022/07/13 01:32:49;;;;;;;5.22;2.42;;;;;;;12.75;77.31;96870.34;2041285;28;20040;-81
2022/07/13 01:33:51;;;;;;;5.25;2.42;;;;;;;12.74;77.59;96869.50;2038355;28;20044;-81
2022/07/13 01:34:52;;;;;;;4.22;2.20;;;;;;;12.76;77.35;96872.06;2036698;29;20029;-81
2022/07/13 01:35:55;;;;;;;5.57;2.45;;;;;;;12.75;77.05;96865.13;2043880;28;20059;-81
2022/07/13 01:36:57;;;;;;;5.85;2.72;;;;;;;12.58;77.65;96848.44;2036716;29;20059;-80
2022/07/13 01:37:58;;;;;;;4.32;2.72;;;;;;;12.72;77.43;96870.47;2044353;28;20039;-81
2022/07/13 01:39:00;;;;;;;3.25;2.08;;;;;;;12.39;78.03;96820.63;2044271;28;20047;-81
2022/07/13 01:40:01;;;;;;;3.25;2.53;;;;;;;12.45;77.38;96831.63;2043734;28;20043;-81
2022/07/13 01:41:02;;;;;;;3.95;2.60;;;;;;;12.55;77.49;96852.94;2043981;28;20052;-82
2022/07/13 01:42:04;;;;;;;4.07;2.13;;;;;;;12.65;77.96;96869.91;2044085;28;20039;-81
2022/07/13 01:43:05;;;;;;;4.95;2.42;;;;;;;12.67;78.06;96875.03;2044369;28;20048;-81
2022/07/13 01:44:07;;;;;;;4.72;2.50;;;;;;;12.22;78.35;96806.53;2036758;29;20040;-80
2022/07/13 01:45:08;;;;;;;2.63;1.95;;;;;;;12.64;78.26;96875.16;2051942;28;20036;-80
2022/07/13 01:46:10;;;;;;;5.43;2.60;;;;;;;12.17;78.09;96799.84;2044186;28;20032;-80
2022/07/13 01:47:11;;;;;;;5.55;2.75;;;;;;;12.62;78.62;96871.78;2036457;29;20065;-81
2022/07/13 01:48:13;;;;;;;5.38;2.60;;;;;;;12.38;78.36;96835.41;2036411;29;20041;-81
2022/07/13 01:49:14;;;;;;;5.22;2.50;;;;;;;12.53;78.27;96859.97;2036497;29;20036;-80
2022/07/13 01:50:16;;;;;;;4.00;2.50;;;;;;;12.64;78.86;96877.75;2044077;28;20282;-80
2022/07/13 01:51:18;;;;;;;5.70;2.72;;;;;;;12.61;78.67;96867.47;2028841;29;20041;-81
2022/07/13 01:52:19;;;;;;;6.15;2.45;;;;;;;12.60;78.63;96876.22;2036789;29;20040;-82
2022/07/13 01:53:20;;;;;;;6.30;2.40;;;;;;;12.54;78.63;96866.91;2036478;29;20033;-81
2022/07/13 01:54:22;;;;;;;8.02;2.55;;;;;;;12.30;78.28;96827.91;2028436;29;20045;-81
2022/07/13 01:55:23;;;;;;;5.20;2.70;;;;;;;12.54;78.86;96878.16;2036186;28;20057;-81
2022/07/13 01:56:24;;;;;;;10.75;2.63;;;;;;;12.28;78.83;96837.53;2035704;29;20071;-80
2022/07/13 01:57:26;;;;;;;4.68;2.65;;;;;;;12.28;78.63;96836.69;2036372;28;20039;-80
2022/07/13 01:58:27;;;;;;;5.40;2.70;;;;;;;12.19;78.08;96813.63;2028656;29;20039;-80
2022/07/13 01:59:28;;;;;;;5.25;2.70;;;;;;;12.35;78.98;96852.00;2028526;29;20048;-81
2022/07/13 02:00:30;;;;;;;8.43;2.88;;;;;;;12.46;79.21;96869.81;2043609;28;20036;-81
2022/07/13 02:01:31;;;;;;;5.85;2.92;;;;;;;12.17;79.01;96825.88;2059834;28;20048;-81
2022/07/13 02:02:32;;;;;;;4.95;2.50;;;;;;;12.07;79.55;96815.81;2035778;29;20028;-81
2022/07/13 02:03:34;;;;;;;4.47;2.42;;;;;;;12.20;79.52;96836.16;2028239;29;20052;-80
2022/07/13 02:04:36;;;;;;;4.10;2.85;;;;;;;12.23;79.18;96841.25;2036529;29;20060;-80
2022/07/13 02:05:37;;;;;;;4.85;2.75;;;;;;;12.41;79.37;96869.16;2036382;29;20049;-81
2022/07/13 02:06:40;;;;;;;2.95;2.33;;;;;;;12.19;79.36;96829.22;2043973;28;20056;-81
2022/07/13 02:07:42;;;;;;;5.20;2.60;;;;;;;12.16;79.81;96822.41;2044280;28;20032;-80
2022/07/13 02:08:44;;;;;;;3.83;2.35;;;;;;;12.28;79.46;96845.34;2044577;28;20055;-80
2022/07/13 02:09:47;;;;;;;4.68;2.80;;;;;;;12.08;79.24;96820.13;2044014;28;20032;-81
2022/07/13 02:10:49;;;;;;;6.40;3.17;;;;;;;12.21;79.72;96840.44;2036727;29;20037;-80
2022/07/13 02:11:50;;;;;;;3.83;2.60;;;;;;;12.39;79.80;96870.97;2052052;28;20042;-81
2022/07/13 02:12:52;;;;;;;3.72;2.55;;;;;;;12.35;79.38;96861.59;2051561;28;20039;-80
2022/07/13 02:13:56;;;;;;;3.15;2.40;;;;;;;12.38;79.77;96860.63;2043757;28;20028;-81
2022/07/13 02:14:57;;;;;;;2.90;2.10;;;;;;;12.35;80.01;96872.84;2052048;28;20047;-81
2022/07/13 02:15:59;;;;;;;5.72;2.80;;;;;;;12.33;79.71;96864.25;2043640;28;20040;-81
2022/07/13 02:17:00;;;;;;;5.25;2.42;;;;;;;12.07;79.76;96820.19;2043812;28;20032;-80
2022/07/13 02:18:01;;;;;;;4.70;2.35;;;;;;;12.34;79.50;96858.13;2035684;29;20036;-81
2022/07/13 02:19:03;;;;;;;3.30;2.45;;;;;;;12.28;79.58;96853.16;2052228;28;20046;-81
2022/07/13 02:20:08;;;;;;;3.40;2.50;;;;;;;12.28;79.89;96857.53;2043766;28;20048;-81
2022/07/13 02:21:10;;;;;;;5.00;2.78;;;;;;;12.27;80.60;96859.28;2044034;28;20036;-81
2022/07/13 02:22:12;;;;;;;7.63;2.63;;;;;;;12.05;80.31;96822.81;2044137;28;20036;-81
2022/07/13 02:23:15;;;;;;;4.15;2.75;;;;;;;11.93;80.45;96796.47;2051675;28;20129;-80
2022/07/13 02:24:17;;;;;;;4.88;2.40;;;;;;;12.02;80.68;96827.31;2044123;28;20036;-81
2022/07/13 02:25:18;;;;;;;6.25;3.45;;;;;;;11.93;80.60;96812.06;2051320;28;20050;-81
2022/07/13 02:26:21;;;;;;;5.13;2.90;;;;;;;12.23;80.47;96862.06;2035728;29;20032;-81
2022/07/13 02:27:22;;;;;;;5.68;3.15;;;;;;;11.76;80.45;96771.94;2028580;29;20037;-81
2022/07/13 02:28:24;;;;;;;8.05;2.63;;;;;;;11.84;79.94;96793.28;2036082;29;20033;-81
2022/07/13 02:29:26;;;;;;;5.90;2.42;;;;;;;12.24;79.86;96861.16;2036386;29;20061;-80
2022/07/13 02:30:27;;;;;;;4.93;2.78;;;;;;;12.07;80.62;96831.44;2043819;28;20051;-81
2022/07/13 02:31:28;;;;;;;3.38;2.58;;;;;;;11.81;80.19;96793.38;2051679;28;20043;-81
2022/07/13 02:32:31;;;;;;;5.13;2.85;;;;;;;11.80;80.52;96783.06;2036017;29;20044;-81
2022/07/13 02:33:32;;;;;;;3.35;2.45;;;;;;;11.73;80.14;96782.44;2036769;29;20036;-81
2022/07/13 02:34:34;;;;;;;6.40;2.80;;;;;;;11.92;80.64;96813.81;2035972;29;20029;-81
2022/07/13 02:35:36;;;;;;;3.47;2.63;;;;;;;11.99;79.92;96817.03;2036365;29;20068;-81
2022/07/13 02:36:37;;;;;;;5.22;2.35;;;;;;;12.08;80.89;96833.16;2051097;28;20030;-81
2022/07/13 02:37:39;;;;;;;4.38;2.70;;;;;;;12.01;80.92;96829.06;2050560;28;20043;-81
2022/07/13 02:38:41;;;;;;;5.47;2.90;;;;;;;11.77;80.28;96785.78;2051525;28;20050;-81
2022/07/13 02:39:42;;;;;;;3.70;2.50;;;;;;;11.80;80.34;96785.66;2051869;28;20034;-82
2022/07/13 02:40:44;;;;;;;4.32;2.72;;;;;;;11.74;80.26;96772.91;2036082;29;20032;-81
2022/07/13 02:41:45;;;;;;;4.45;2.70;;;;;;;12.19;80.63;96850.06;2028150;29;20076;-81
2022/07/13 02:42:47;;;;;;;6.13;2.78;;;;;;;11.74;80.14;96775.50;2028842;29;20048;-81
2022/07/13 02:43:49;;;;;;;4.20;2.75;;;;;;;12.19;80.21;96856.16;2028017;29;20041;-82
2022/07/13 02:44:51;;;;;;;6.22;2.60;;;;;;;12.10;80.38;96840.88;2020352;29;20029;-81
2022/07/13 02:45:53;;;;;;;4.25;2.90;;;;;;;11.80;80.61;96790.84;2028832;29;20246;-82
2022/07/13 02:46:54;;;;;;;5.78;2.85;;;;;;;11.79;80.42;96787.41;2028250;29;20089;-81
2022/07/13 02:47:56;;;;;;;4.05;2.55;;;;;;;11.99;80.06;96822.25;2028310;29;20032;-81
2022/07/13 02:48:57;;;;;;;2.72;2.35;;;;;;;12.21;80.15;96858.69;2028400;29;20021;-81
2022/07/13 02:50:02;;;;;;;5.10;2.85;;;;;;;11.97;79.90;96824.88;2166410;23;20034;-80
2022/07/13 02:51:03;;;;;;;3.78;2.53;;;;;;;12.19;79.93;96850.06;2049264;28;20059;-80
2022/07/13 02:52:05;;;;;;;4.22;2.50;;;;;;;11.94;80.78;96806.78;2042490;28;20036;-80
2022/07/13 02:53:06;;;;;;;8.82;2.65;;;;;;;11.99;80.12;96820.47;2043383;28;20031;-79
2022/07/13 02:54:10;;;;;;;5.70;2.58;;;;;;;11.75;80.39;96778.03;2051868;28;20042;-80
2022/07/13 02:55:13;;;;;;;3.33;2.53;;;;;;;11.88;80.66;96807.88;2050889;28;20024;-80
2022/07/13 02:56:15;;;;;;;3.97;2.38;;;;;;;11.75;80.46;96785.81;2051455;28;20055;-80
2022/07/13 02:57:17;;;;;;;4.80;2.70;;;;;;;11.82;80.04;96791.66;2051651;28;20047;-81
2022/07/13 02:58:27;;;;;;;4.65;2.53;;;;;;;11.76;80.59;96776.25;2051590;28;20060;-80
2022/07/13 02:59:33;;;;;;;3.55;2.42;;;;;;;11.77;80.48;96783.19;2052700;28;20043;-80
2022/07/13 03:00:35;;;;;;;3.83;2.80;;;;;;;12.20;80.13;96851.78;2051246;28;20051;-80
2022/07/13 03:01:36;;;;;;;4.97;2.80;;;;;;;12.05;80.16;96822.81;2128202;23;21022;-81
2022/07/13 03:02:38;;;;;;;3.28;2.42;;;;;;;12.20;80.34;96847.41;2043595;28;20060;-80
2022/07/13 03:03:41;;;;;;;5.78;2.75;;;;;;;12.05;80.89;96828.03;2044307;28;20024;-80
2022/07/13 03:04:43;;;;;;;2.97;2.45;;;;;;;11.76;80.76;96784.06;2059793;28;20046;-80
2022/07/13 03:05:45;;;;;;;4.00;2.70;;;;;;;12.18;81.14;96848.38;2059398;28;20027;-78
2022/07/13 03:06:46;;;;;;;8.52;3.20;;;;;;;12.18;80.86;96853.59;2051095;28;20047;-79
2022/07/13 03:07:49;;;;;;;5.45;2.80;;;;;;;12.16;80.76;96850.19;2038253;28;20060;-80
2022/07/13 03:08:50;;;;;;;6.65;2.58;;;;;;;12.14;80.44;96856.31;2039925;28;20044;-80
2022/07/13 03:09:52;;;;;;;3.83;2.83;;;;;;;11.78;80.56;96797.88;2051237;28;21159;-80
2022/07/13 03:10:54;;;;;;;4.55;2.70;;;;;;;11.72;81.05;96787.72;2051516;28;20060;-79
2022/07/13 03:11:55;;;;;;;5.97;3.08;;;;;;;11.84;81.15;96813.22;2035486;29;20040;-79
2022/07/13 03:13:11;;;;;;;4.90;2.55;;;;;;;11.85;80.53;96809.75;2042161;28;20068;-80
2022/07/13 03:14:13;;;;;;;3.90;3.00;;;;;;;11.79;80.39;96803.03;2053115;28;20043;-80
2022/07/13 03:15:15;;;;;;;4.30;2.75;;;;;;;12.13;80.50;96861.56;2051538;28;20042;-81
2022/07/13 03:16:16;;;;;;;3.95;2.90;;;;;;;11.93;81.06;96819.88;2051013;28;20043;-80
2022/07/13 03:17:19;;;;;;;4.63;2.78;;;;;;;11.67;80.24;96791.31;2050473;28;20046;-80
2022/07/13 03:18:21;;;;;;;4.53;2.88;;;;;;;11.80;80.50;96812.50;2035351;28;20061;-79
2022/07/13 03:19:23;;;;;;;5.32;2.88;;;;;;;11.80;81.28;96817.72;2049641;28;20055;-79
2022/07/13 03:20:25;;;;;;;5.38;2.60;;;;;;;12.07;81.27;96870.47;2050895;28;20039;-79
2022/07/13 03:21:29;;;;;;;4.38;2.72;;;;;;;12.00;81.52;96869.03;2051050;28;20046;-79
2022/07/13 03:22:30;;;;;;;4.45;2.85;;;;;;;11.97;81.06;96871.75;2057659;28;20038;-80
2022/07/13 03:23:32;;;;;;;6.50;2.90;;;;;;;11.93;81.98;96870.19;2048221;28;20511;-80
2022/07/13 03:24:36;;;;;;;4.22;2.65;;;;;;;11.62;81.38;96818.44;2048460;28;20058;-80
2022/07/13 03:25:38;;;;;;;5.32;2.67;;;;;;;12.03;80.80;96874.13;2042821;28;20024;-78
2022/07/13 03:26:41;;;;;;;6.97;3.03;;;;;;;11.90;80.16;96852.09;2039152;28;20039;-79
2022/07/13 03:27:42;;;;;;;4.18;2.92;;;;;;;11.97;80.51;96870.91;2043447;28;20051;-79
2022/07/13 03:28:45;;;;;;;6.38;2.88;;;;;;;11.61;81.60;96821.94;2043049;28;20267;-79
2022/07/13 03:29:47;;;;;;;6.55;3.10;;;;;;;11.89;81.60;96866.00;2022347;29;20061;-79
2022/07/13 03:30:49;;;;;;;4.80;2.63;;;;;;;11.56;81.72;96818.66;2032672;29;20047;-79
2022/07/13 03:31:52;;;;;;;7.43;2.80;;;;;;;11.77;81.24;96871.66;2047657;28;20036;-79
2022/07/13 03:32:54;;;;;;;5.20;3.03;;;;;;;11.74;81.66;96871.78;2053346;28;20039;-80
2022/07/13 03:33:55;;;;;;;3.95;2.47;;;;;;;11.73;82.42;96872.66;2043352;28;20044;-81
2022/07/13 03:34:58;;;;;;;5.60;2.47;;;;;;;11.51;82.25;96834.44;2042633;28;20044;-80
2022/07/13 03:36:00;;;;;;;4.10;2.90;;;;;;;11.46;82.37;96823.34;2053155;28;20051;-79
2022/07/13 03:37:01;;;;;;;3.50;2.50;;;;;;;11.32;82.42;96807.44;2043189;28;20274;-80
2022/07/13 03:38:03;;;;;;;4.22;2.75;;;;;;;11.66;82.84;96866.84;2032976;28;20192;-79
2022/07/13 03:39:06;;;;;;;4.00;2.78;;;;;;;11.68;82.50;96865.00;2049827;28;20262;-79
2022/07/13 03:40:08;;;;;;;5.68;2.75;;;;;;;11.71;82.98;96867.53;2051401;28;20046;-80
2022/07/13 03:41:10;;;;;;;4.43;2.83;;;;;;;11.70;82.94;96864.06;2048843;28;20036;-79
2022/07/13 03:42:12;;;;;;;6.35;2.85;;;;;;;11.69;81.94;96858.94;2038946;28;20056;-80
2022/07/13 03:43:15;;;;;;;6.35;2.92;;;;;;;11.34;82.22;96803.03;2050030;28;20042;-80
2022/07/13 03:44:16;;;;;;;9.65;3.25;;;;;;;11.45;82.47;96819.06;2050927;28;20047;-78
2022/07/13 03:45:19;;;;;;;4.25;2.65;;;;;;;11.57;81.53;96836.81;2049431;28;20032;-81
2022/07/13 03:46:21;;;;;;;8.45;3.05;;;;;;;11.78;81.56;96868.13;2043408;28;20055;-80
2022/07/13 03:47:22;;;;;;;4.50;2.53;;;;;;;11.76;81.26;96860.41;2048932;28;20051;-80
2022/07/13 03:48:24;;;;;;;5.13;3.05;;;;;;;11.58;81.06;96828.09;2050332;28;20048;-80
2022/07/13 03:49:25;;;;;;;4.43;2.75;;;;;;;11.72;81.16;96851.00;2031513;29;20076;-80
2022/07/13 03:50:27;;;;;;;5.15;2.65;;;;;;;11.60;82.04;96831.50;2041947;28;20056;-81
2022/07/13 03:51:28;;;;;;;4.72;2.60;;;;;;;11.82;81.11;96864.50;2044864;29;20047;-80
2022/07/13 03:52:30;;;;;;;4.50;3.35;;;;;;;11.83;80.94;96861.00;2045277;29;20070;-79
2022/07/13 03:53:32;;;;;;;5.53;2.78;;;;;;;11.85;81.54;96861.78;2048883;28;20043;-79
2022/07/13 03:54:35;;;;;;;6.63;3.25;;;;;;;11.66;80.63;96831.28;2048156;29;20043;-80
2022/07/13 03:55:39;;;;;;;4.47;2.80;;;;;;;11.62;80.99;96816.66;2038264;29;20066;-81
2022/07/13 03:56:40;;;;;;;4.40;2.83;;;;;;;11.60;80.97;96810.69;2043153;28;20060;-79
2022/07/13 03:57:43;;;;;;;4.38;2.72;;;;;;;11.52;80.76;96786.72;2051013;28;20036;-80
2022/07/13 03:58:47;;;;;;;4.97;3.20;;;;;;;11.59;81.08;96792.53;2042490;28;20063;-80
2022/07/13 03:59:50;;;;;;;7.15;2.92;;;;;;;11.97;80.63;96850.91;2041045;28;20043;-81
2022/07/13 04:00:51;;;;;;;7.70;3.10;;;;;;;12.03;80.73;96850.69;2042117;28;20028;-80
2022/07/13 04:01:53;;;;;;;4.20;2.75;;;;;;;11.68;80.17;96777.44;2047219;28;20036;-81
2022/07/13 04:02:56;;;;;;;10.48;3.10;;;;;;;12.02;79.46;96809.94;2056615;28;20039;-80
2022/07/13 04:03:59;;;;;;;4.68;3.10;;;;;;;12.10;79.00;96792.25;2047241;28;20044;-80
2022/07/13 04:05:00;;;;;;;4.45;2.80;;;;;;;12.29;78.43;96802.75;2047764;28;20042;-80
2022/07/13 04:06:04;;;;;;;6.28;2.70;;;;;;;12.71;77.58;96843.56;2047208;28;20042;-80
2022/07/13 04:07:05;;;;;;;5.88;2.50;;;;;;;12.63;76.60;96788.34;2051408;28;20038;-80
2022/07/13 04:08:08;;;;;;;3.75;2.58;;;;;;;12.72;75.97;96772.31;2042324;28;20048;-80
2022/07/13 04:09:11;;;;;;;6.63;2.83;;;;;;;13.03;74.80;96787.44;2050583;28;20032;-81
2022/07/13 04:10:13;;;;;;;8.80;3.17;;;;;;;13.48;74.15;96836.81;2041362;29;20063;-82
2022/07/13 04:11:15;;;;;;;5.18;2.47;;;;;;;13.52;73.61;96833.13;2043336;28;20040;-80
2022/07/13 04:12:21;;;;;;;5.20;2.55;;;;;;;13.49;73.57;96833.28;2051008;28;20047;-80
2022/07/13 04:13:22;;;;;;;4.65;2.60;;;;;;;13.23;73.61;96798.72;2051248;28;20063;-80
2022/07/13 04:14:26;;;;;;;3.65;2.60;;;;;;;12.54;75.24;96740.06;2048123;28;20035;-81
2022/07/13 04:15:29;;;;;;;7.85;2.80;;;;;;;12.79;74.78;96784.16;2050244;28;20038;-81
2022/07/13 04:16:30;;;;;;;4.25;3.33;;;;;;;12.83;75.37;96790.09;2050703;28;20048;-79
2022/07/13 04:17:32;;;;;;;4.45;2.67;;;;;;;12.65;75.37;96775.25;2050769;28;20024;-80
2022/07/13 04:18:34;;;;;;;6.70;2.67;;;;;;;12.60;76.25;96772.84;2041193;28;20052;-80
2022/07/13 04:19:37;;;;;;;4.18;2.97;;;;;;;12.44;76.04;96761.38;2050443;28;20063;-79
2022/07/13 04:20:40;;;;;;;5.00;2.85;;;;;;;12.32;76.86;96755.78;2046296;28;20052;-80
2022/07/13 04:21:42;;;;;;;4.15;2.72;;;;;;;12.31;76.70;96750.63;2043109;28;20036;-81
2022/07/13 04:22:46;;;;;;;4.22;2.75;;;;;;;12.23;77.07;96742.28;2048522;28;20051;-80
2022/07/13 04:23:49;;;;;;;4.50;3.10;;;;;;;12.70;76.88;96825.41;2044294;28;20043;-79
2022/07/13 04:24:50;;;;;;;4.07;2.55;;;;;;;12.66;77.33;96829.88;2046960;29;20039;-80
2022/07/13 04:25:55;;;;;;;4.18;2.75;;;;;;;12.49;77.24;96801.09;2212314;23;20047;-81
2022/07/13 04:26:58;;;;;;;6.78;2.75;;;;;;;12.16;77.34;96740.84;2058024;28;20062;-80
2022/07/13 04:28:00;;;;;;;3.92;2.70;;;;;;;12.27;77.33;96754.25;2051084;28;20032;-80
2022/07/13 04:29:03;;;;;;;5.50;2.53;;;;;;;12.38;77.67;96769.47;2049457;28;20020;-80
2022/07/13 04:30:06;;;;;;;8.23;3.17;;;;;;;12.43;77.20;96780.50;2053102;28;20051;-81
2022/07/13 04:31:08;;;;;;;4.30;3.00;;;;;;;12.39;76.99;96778.94;2057356;28;20039;-80
2022/07/13 04:32:14;;;;;;;6.90;3.00;;;;;;;12.67;76.97;96815.97;2185242;23;21037;-82
2022/07/13 04:33:16;;;;;;;5.20;2.90;;;;;;;12.69;77.36;96818.50;2065376;28;20050;-81
2022/07/13 04:34:21;;;;;;;8.95;2.80;;;;;;;12.28;76.92;96751.59;2053508;29;20050;-79
2022/07/13 04:35:24;;;;;;;4.38;2.97;;;;;;;12.29;76.92;96740.25;2051167;28;20052;-81
2022/07/13 04:36:28;;;;;;;6.22;2.75;;;;;;;12.43;76.75;96762.25;2049818;28;20241;-80
2022/07/13 04:37:52;;;;;;;10.98;3.08;;;;;;;12.32;77.14;96742.75;2050749;28;20059;-80
2022/07/13 04:39:02;;;;;;;8.57;3.13;;;;;;;12.77;77.26;96811.19;2054898;28;20059;-78
2022/07/13 04:40:09;;;;;;;5.53;2.75;;;;;;;12.68;77.37;96783.78;2047428;29;20047;-80
2022/07/13 04:42:29;;;;;;;4.50;2.47;;;;;;;12.89;76.58;96808.06;2077271;28;20046;-82
2022/07/13 04:43:30;;;;;;;4.68;2.20;;;;;;;12.73;76.91;96780.97;2081187;28;20029;-80
2022/07/13 04:44:32;;;;;;;6.38;2.78;;;;;;;12.65;76.65;96765.66;2093767;23;20046;-80
2022/07/13 04:45:34;;;;;;;6.30;2.35;;;;;;;12.78;76.14;96784.22;2065517;28;20046;-79
2022/07/13 04:46:35;;;;;;;6.40;2.40;;;;;;;12.83;76.18;96784.88;2057619;28;20035;-78
2022/07/13 04:47:37;;;;;;;3.38;2.40;;;;;;;12.82;76.56;96780.56;2055647;28;20039;-80
2022/07/13 04:48:38;;;;;;;7.15;2.92;;;;;;;12.80;76.34;96785.84;2058677;28;20050;-76
2022/07/13 04:49:40;;;;;;;4.47;2.60;;;;;;;12.95;76.34;96799.97;2072607;28;20068;-81
2022/07/13 04:50:42;;;;;;;7.95;2.67;;;;;;;13.06;75.82;96816.91;2073933;28;20038;-81
2022/07/13 04:51:43;;;;;;;6.43;2.50;;;;;;;12.96;76.14;96778.22;2062445;28;20039;-79
2022/07/13 04:52:46;;;;;;;5.63;2.42;;;;;;;13.17;75.76;96812.91;2048702;28;20507;-77
2022/07/13 04:53:47;;;;;;;6.50;2.33;;;;;;;13.19;76.19;96807.63;2055777;28;20043;-81
2022/07/13 04:54:49;;;;;;;5.57;2.22;;;;;;;13.20;76.15;96807.56;2064305;28;20493;-78